Historyczne dane pomiarowe

Dodano dane terminowe – wersja testowa.

Dane z okresu 1951-2018

Wersja bazy: 1.27 [2018-11-28, lista zmian], aktualizacja planowana na 2018-12-07

Dane meteo z obszaru Polski uzyskane na podstawie danych udostępnionych przez Instytut Meteorologii i Gospodarki Wodnej – Państwowy Instytut Badawczy.

 

Wybierz Datę:    

       

TemperaturaWilgotnośćWiatrCiśnienieOpadyŚniegCzas trwania zjawisk
 Stacja t tx tn tng RH VA  wxwx mslp ppp RRR   cm mm wxwxwxwxwxwxwx
1959-11-08 4.3 5.4 3.5 3.1 94.8- 8.0 2.3---- 0.4------------
1959-11-09 5.0 5.6 3.5 3.1 95.5- 8.0 1.3---- 2.3------------
1959-11-10 5.7 7.2 4.9 4.5 90.8- 8.0 1.7---- 3.5------------
1959-11-11 5.1 6.6 3.4 2.3 93.5- 8.0 1.3---- 0.0------------
1959-11-12 4.4 5.7 2.2 -0.3 94.8- 8.0 1.7---- 0.0------------
1959-11-13 4.4 5.2 3.0 2.6 92.0- 8.0 5.7---- 0.0------------
1959-11-14 5.6 7.9 4.4 3.6 82.8- 7.3 8.0---- 0.0------------
1959-11-15 1.4 4.6 -0.4 0.8 72.5- 5.3 8.0---- 0.0------------
1959-11-16 -2.7 0.4 -3.8 -6.0 80.8- 5.7 8.7---- 0.0------------
1959-11-17 -2.4 -1.9 -3.3 -3.9 90.0- 8.0 1.7---- 0.6------------
1959-11-18 0.0 1.1 -2.3 -4.4 94.3- 8.0 9.3---- 0.0-- 1---------
1959-11-19 1.4 2.0 -0.4 -0.9 95.0- 8.0 4.7---- 5.5------------
1959-11-20 2.5 4.1 1.5 1.1 96.3- 8.0 1.0---- 0.0------------
1959-11-21 -1.3 2.3 -3.3 0.4 92.5- 5.3 3.0---- 0.0------------
1959-11-22 -3.8 -1.9 -5.7 -9.0 87.0- 2.7 2.3---- 0.0------------
1959-11-23 -2.6 -0.3 -6.4 -8.9 86.3- 5.7 2.0---- 0.0------------
1959-11-24 -0.2 1.3 -1.7 -3.9 89.5- 4.7 2.0---- 0.0------------
1959-11-25 -0.9 3.0 -3.1 -6.5 82.0- 2.7 2.3---- 0.0------------
1959-11-26 -4.6 -2.8 -6.9-11.1 83.0- 8.0 0.7---- 0.0------------
1959-11-27 -0.6 1.5 -5.0 -5.2 91.3- 8.0 4.3---- 0.0------------
1959-11-28 1.7 3.0 -1.1 -2.5 87.5- 6.7 3.3---- 0.0------------
1959-11-29 1.9 2.6 0.8 -0.1 94.5- 8.0 1.7---- 0.5------------
1959-11-30 1.8 2.8 -0.7 -1.4 95.5- 8.0 2.7---- 0.0------------
1959-12-01 1.6 2.7 -0.3 -0.6 95.3- 8.0 4.7---- 0.0------------
1959-12-02 2.5 3.4 1.7 1.2 96.8- 8.0 2.7---- 8.0------------
1959-12-03 4.4 5.4 2.8 0.5 96.0- 8.0 0.0---- 0.0------------
1959-12-04 0.6 4.6 -0.9 2.4 94.5- 8.0 3.3---- 5.9------------
1959-12-05 -7.6 -0.9-10.6 -3.6 80.3- 5.7 5.3---- 0.3------------
1959-12-06-14.4 -9.8-16.2-17.1 63.5- 1.3 7.3---- 0.0------------
1959-12-07-15.3-13.8-18.9-19.7 61.3- 5.7 8.3---- 0.0------------
122.9 ms

 

Źródłem pochodzenia danych jest Instytut Meteorologii i Gospodarki Wodnej – Państwowy Instytut Badawczy. Dane Instytutu Meteorologii i Gospodarki Wodnej – Państwowego Instytutu Badawczego zostały przetworzone.

Dane źródłowe można odnaleźć na stronie https://dane.imgw.pl